Kearsley, United Kingdom
Current Conditions -  °F | °C
As of 10:50 AM on Monday 20 Oct 2014 (Local Time) from EGCC Reporting Station
Moderate Rain Moderate Rain  
Wind Chill: 54°   Ceiling: 2800
Heat Index: 54°   Visibility: 6mi
Dew Point: 50°   Wind: 9mph
Humidity: 88%   Direction: 230°SW
Pressure: 29.91"   Gusts: NA
Location:  53.53°N, 2.38°W
Report Text: EGCC 200950Z 23008KT 9000 RA SCT022 BKN028 12/10 Q1013
Loading
Personal Weather Stations






























Interactive Weather Map
Tropical Storm Tracking
New forecast layout! Learn more

10-Day Weather Forecast

Advertisements
Track Severe Weather on mobile